sensor_id;sensor_type;location;lat;lon;timestamp;P1;durP1;ratioP1;P2;durP2;ratioP2
46110;SDS011;31849;55.992;37.252;2023-09-07T00:01:13;3.53;;;1.35;;
46110;SDS011;31849;55.992;37.252;2023-09-07T00:06:19;3.03;;;1.20;;
46110;SDS011;31849;55.992;37.252;2023-09-07T00:11:22;3.10;;;1.50;;
46110;SDS011;31849;55.992;37.252;2023-09-07T00:16:26;4.07;;;1.45;;
46110;SDS011;31849;55.992;37.252;2023-09-07T00:21:31;3.65;;;1.63;;
46110;SDS011;31849;55.992;37.252;2023-09-07T00:26:34;5.55;;;1.92;;
46110;SDS011;31849;55.992;37.252;2023-09-07T00:31:38;5.30;;;1.58;;
46110;SDS011;31849;55.992;37.252;2023-09-07T00:36:44;3.55;;;1.75;;
46110;SDS011;31849;55.992;37.252;2023-09-07T00:41:48;4.55;;;1.77;;
46110;SDS011;31849;55.992;37.252;2023-09-07T00:46:52;4.40;;;1.70;;
46110;SDS011;31849;55.992;37.252;2023-09-07T00:51:57;4.20;;;1.50;;
46110;SDS011;31849;55.992;37.252;2023-09-07T00:57:00;4.15;;;1.70;;
46110;SDS011;31849;55.992;37.252;2023-09-07T01:02:04;4.72;;;1.60;;
46110;SDS011;31849;55.992;37.252;2023-09-07T01:07:12;3.90;;;1.63;;
46110;SDS011;31849;55.992;37.252;2023-09-07T01:12:19;4.47;;;1.42;;
46110;SDS011;31849;55.992;37.252;2023-09-07T01:17:23;6.43;;;1.60;;
46110;SDS011;31849;55.992;37.252;2023-09-07T01:27:33;5.10;;;1.73;;
46110;SDS011;31849;55.992;37.252;2023-09-07T01:32:37;5.00;;;1.63;;
46110;SDS011;31849;55.992;37.252;2023-09-07T01:37:42;4.83;;;1.50;;
46110;SDS011;31849;55.992;37.252;2023-09-07T01:42:46;3.58;;;1.30;;
46110;SDS011;31849;55.992;37.252;2023-09-07T01:47:49;3.08;;;1.40;;
46110;SDS011;31849;55.992;37.252;2023-09-07T01:52:55;2.70;;;1.35;;
46110;SDS011;31849;55.992;37.252;2023-09-07T01:57:59;4.15;;;1.42;;
46110;SDS011;31849;55.992;37.252;2023-09-07T02:03:02;4.30;;;1.20;;
46110;SDS011;31849;55.992;37.252;2023-09-07T02:08:08;4.05;;;1.15;;
46110;SDS011;31849;55.992;37.252;2023-09-07T02:13:11;2.45;;;1.35;;
46110;SDS011;31849;55.992;37.252;2023-09-07T02:18:16;4.95;;;1.20;;
46110;SDS011;31849;55.992;37.252;2023-09-07T02:23:41;1.85;;;1.00;;
46110;SDS011;31849;55.992;37.252;2023-09-07T02:28:45;4.95;;;1.17;;
46110;SDS011;31849;55.992;37.252;2023-09-07T02:33:48;2.70;;;1.17;;
46110;SDS011;31849;55.992;37.252;2023-09-07T02:38:53;2.92;;;1.20;;
46110;SDS011;31849;55.992;37.252;2023-09-07T02:43:57;4.43;;;1.20;;
46110;SDS011;31849;55.992;37.252;2023-09-07T02:49:00;2.78;;;0.85;;
46110;SDS011;31849;55.992;37.252;2023-09-07T02:54:06;2.17;;;1.05;;
46110;SDS011;31849;55.992;37.252;2023-09-07T02:59:10;3.35;;;1.10;;
46110;SDS011;31849;55.992;37.252;2023-09-07T03:04:13;4.07;;;1.25;;
46110;SDS011;31849;55.992;37.252;2023-09-07T03:09:18;5.75;;;1.13;;
46110;SDS011;31849;55.992;37.252;2023-09-07T03:14:22;2.55;;;1.00;;
46110;SDS011;31849;55.992;37.252;2023-09-07T03:19:26;2.03;;;1.02;;
46110;SDS011;31849;55.992;37.252;2023-09-07T03:24:31;3.97;;;1.40;;
46110;SDS011;31849;55.992;37.252;2023-09-07T03:29:35;3.30;;;1.10;;
46110;SDS011;31849;55.992;37.252;2023-09-07T03:34:40;4.85;;;1.20;;
46110;SDS011;31849;55.992;37.252;2023-09-07T03:39:45;2.10;;;1.00;;
46110;SDS011;31849;55.992;37.252;2023-09-07T03:44:48;2.15;;;1.00;;
46110;SDS011;31849;55.992;37.252;2023-09-07T03:49:52;4.60;;;1.17;;
46110;SDS011;31849;55.992;37.252;2023-09-07T03:54:57;5.38;;;1.70;;
46110;SDS011;31849;55.992;37.252;2023-09-07T04:00:00;4.07;;;1.10;;
46110;SDS011;31849;55.992;37.252;2023-09-07T04:05:09;3.45;;;1.20;;
46110;SDS011;31849;55.992;37.252;2023-09-07T04:10:15;3.63;;;1.53;;
46110;SDS011;31849;55.992;37.252;2023-09-07T04:15:19;2.05;;;0.90;;
46110;SDS011;31849;55.992;37.252;2023-09-07T04:20:23;2.88;;;1.40;;
46110;SDS011;31849;55.992;37.252;2023-09-07T04:30:36;4.13;;;1.30;;
46110;SDS011;31849;55.992;37.252;2023-09-07T04:35:40;4.00;;;1.20;;
46110;SDS011;31849;55.992;37.252;2023-09-07T04:40:45;4.20;;;1.20;;
46110;SDS011;31849;55.992;37.252;2023-09-07T04:45:49;3.80;;;1.38;;
46110;SDS011;31849;55.992;37.252;2023-09-07T04:50:57;2.37;;;1.50;;
46110;SDS011;31849;55.992;37.252;2023-09-07T04:56:02;2.50;;;1.30;;
46110;SDS011;31849;55.992;37.252;2023-09-07T05:01:07;2.78;;;0.90;;
46110;SDS011;31849;55.992;37.252;2023-09-07T05:11:17;2.97;;;1.10;;
46110;SDS011;31849;55.992;37.252;2023-09-07T05:16:21;2.00;;;1.10;;
46110;SDS011;31849;55.992;37.252;2023-09-07T05:21:24;2.00;;;1.00;;
46110;SDS011;31849;55.992;37.252;2023-09-07T05:26:29;3.50;;;1.13;;
46110;SDS011;31849;55.992;37.252;2023-09-07T05:31:33;2.55;;;1.13;;
46110;SDS011;31849;55.992;37.252;2023-09-07T05:36:37;4.15;;;1.30;;
46110;SDS011;31849;55.992;37.252;2023-09-07T05:41:42;4.50;;;1.50;;
46110;SDS011;31849;55.992;37.252;2023-09-07T05:46:45;4.75;;;1.40;;
46110;SDS011;31849;55.992;37.252;2023-09-07T05:56:54;2.45;;;1.23;;
46110;SDS011;31849;55.992;37.252;2023-09-07T06:01:58;4.20;;;1.60;;
46110;SDS011;31849;55.992;37.252;2023-09-07T06:07:01;4.22;;;1.58;;
46110;SDS011;31849;55.992;37.252;2023-09-07T06:12:07;3.97;;;1.52;;
46110;SDS011;31849;55.992;37.252;2023-09-07T06:17:11;2.53;;;1.23;;
46110;SDS011;31849;55.992;37.252;2023-09-07T06:22:14;2.78;;;1.20;;
46110;SDS011;31849;55.992;37.252;2023-09-07T06:27:19;4.68;;;1.30;;
46110;SDS011;31849;55.992;37.252;2023-09-07T06:32:23;4.30;;;1.25;;
46110;SDS011;31849;55.992;37.252;2023-09-07T06:37:27;4.03;;;1.30;;
46110;SDS011;31849;55.992;37.252;2023-09-07T06:42:33;4.65;;;1.40;;
46110;SDS011;31849;55.992;37.252;2023-09-07T06:47:37;4.95;;;1.70;;
46110;SDS011;31849;55.992;37.252;2023-09-07T06:52:40;3.05;;;1.30;;
46110;SDS011;31849;55.992;37.252;2023-09-07T06:57:45;3.22;;;1.30;;
46110;SDS011;31849;55.992;37.252;2023-09-07T07:02:49;2.95;;;1.20;;
46110;SDS011;31849;55.992;37.252;2023-09-07T07:07:52;2.85;;;1.45;;
46110;SDS011;31849;55.992;37.252;2023-09-07T07:12:57;4.05;;;1.70;;
46110;SDS011;31849;55.992;37.252;2023-09-07T07:18:01;4.50;;;1.42;;
46110;SDS011;31849;55.992;37.252;2023-09-07T07:23:10;4.22;;;1.50;;
46110;SDS011;31849;55.992;37.252;2023-09-07T07:28:15;4.30;;;1.40;;
46110;SDS011;31849;55.992;37.252;2023-09-07T07:33:19;2.13;;;1.20;;
46110;SDS011;31849;55.992;37.252;2023-09-07T07:38:23;3.72;;;1.25;;
46110;SDS011;31849;55.992;37.252;2023-09-07T07:43:28;1.95;;;1.20;;
46110;SDS011;31849;55.992;37.252;2023-09-07T07:48:32;2.65;;;1.00;;
46110;SDS011;31849;55.992;37.252;2023-09-07T07:53:37;1.90;;;1.10;;
46110;SDS011;31849;55.992;37.252;2023-09-07T07:58:42;3.38;;;1.23;;
46110;SDS011;31849;55.992;37.252;2023-09-07T08:03:46;4.13;;;1.20;;
46110;SDS011;31849;55.992;37.252;2023-09-07T08:08:50;3.22;;;1.10;;
46110;SDS011;31849;55.992;37.252;2023-09-07T08:13:55;2.70;;;1.00;;
46110;SDS011;31849;55.992;37.252;2023-09-07T08:18:59;2.90;;;1.20;;
46110;SDS011;31849;55.992;37.252;2023-09-07T08:24:03;4.22;;;0.93;;
46110;SDS011;31849;55.992;37.252;2023-09-07T08:29:09;4.53;;;1.30;;
46110;SDS011;31849;55.992;37.252;2023-09-07T08:34:12;2.55;;;0.80;;
46110;SDS011;31849;55.992;37.252;2023-09-07T08:39:17;3.03;;;1.20;;
46110;SDS011;31849;55.992;37.252;2023-09-07T08:44:24;2.92;;;0.98;;
46110;SDS011;31849;55.992;37.252;2023-09-07T08:49:30;2.38;;;0.70;;
46110;SDS011;31849;55.992;37.252;2023-09-07T08:54:35;2.60;;;0.70;;
46110;SDS011;31849;55.992;37.252;2023-09-07T08:59:41;2.08;;;0.80;;
46110;SDS011;31849;55.992;37.252;2023-09-07T09:04:45;3.88;;;0.80;;
46110;SDS011;31849;55.992;37.252;2023-09-07T09:09:48;3.55;;;1.00;;
46110;SDS011;31849;55.992;37.252;2023-09-07T09:14:53;1.85;;;0.70;;
46110;SDS011;31849;55.992;37.252;2023-09-07T09:19:57;2.13;;;0.90;;
46110;SDS011;31849;55.992;37.252;2023-09-07T09:25:02;3.22;;;0.93;;
46110;SDS011;31849;55.992;37.252;2023-09-07T09:30:09;3.17;;;0.77;;
46110;SDS011;31849;55.992;37.252;2023-09-07T09:35:13;2.97;;;0.70;;
46110;SDS011;31849;55.992;37.252;2023-09-07T09:40:19;3.42;;;0.80;;
46110;SDS011;31849;55.992;37.252;2023-09-07T09:45:26;1.50;;;0.60;;
46110;SDS011;31849;55.992;37.252;2023-09-07T09:50:31;2.42;;;0.82;;
46110;SDS011;31849;55.992;37.252;2023-09-07T09:55:36;1.75;;;0.70;;
46110;SDS011;31849;55.992;37.252;2023-09-07T10:05:46;3.42;;;1.10;;
46110;SDS011;31849;55.992;37.252;2023-09-07T10:10:52;3.42;;;0.70;;
46110;SDS011;31849;55.992;37.252;2023-09-07T10:16:01;2.33;;;0.80;;
46110;SDS011;31849;55.992;37.252;2023-09-07T10:21:09;2.28;;;0.90;;
46110;SDS011;31849;55.992;37.252;2023-09-07T10:26:13;2.87;;;0.80;;
46110;SDS011;31849;55.992;37.252;2023-09-07T10:31:25;2.20;;;1.00;;
46110;SDS011;31849;55.992;37.252;2023-09-07T10:36:44;2.33;;;0.90;;
46110;SDS011;31849;55.992;37.252;2023-09-07T10:41:48;1.90;;;0.73;;
46110;SDS011;31849;55.992;37.252;2023-09-07T10:46:54;2.28;;;0.70;;
46110;SDS011;31849;55.992;37.252;2023-09-07T10:51:57;6.03;;;0.88;;
46110;SDS011;31849;55.992;37.252;2023-09-07T10:57:07;5.85;;;0.80;;
46110;SDS011;31849;55.992;37.252;2023-09-07T11:02:12;3.85;;;0.80;;
46110;SDS011;31849;55.992;37.252;2023-09-07T11:07:17;2.67;;;0.82;;
46110;SDS011;31849;55.992;37.252;2023-09-07T11:12:21;4.18;;;0.93;;
46110;SDS011;31849;55.992;37.252;2023-09-07T11:17:29;4.05;;;1.00;;
46110;SDS011;31849;55.992;37.252;2023-09-07T11:22:33;2.20;;;0.80;;
46110;SDS011;31849;55.992;37.252;2023-09-07T11:28:01;2.30;;;0.88;;
46110;SDS011;31849;55.992;37.252;2023-09-07T11:33:07;3.00;;;1.05;;
46110;SDS011;31849;55.992;37.252;2023-09-07T11:38:12;1.70;;;0.85;;
46110;SDS011;31849;55.992;37.252;2023-09-07T11:43:17;2.45;;;0.90;;
46110;SDS011;31849;55.992;37.252;2023-09-07T11:48:23;2.13;;;1.10;;
46110;SDS011;31849;55.992;37.252;2023-09-07T11:53:26;2.35;;;1.10;;
46110;SDS011;31849;55.992;37.252;2023-09-07T12:03:35;2.95;;;0.90;;
46110;SDS011;31849;55.992;37.252;2023-09-07T12:08:41;2.05;;;0.82;;
46110;SDS011;31849;55.992;37.252;2023-09-07T12:13:45;4.15;;;1.00;;
46110;SDS011;31849;55.992;37.252;2023-09-07T12:18:51;2.55;;;1.00;;
46110;SDS011;31849;55.992;37.252;2023-09-07T12:23:55;4.15;;;0.90;;
46110;SDS011;31849;55.992;37.252;2023-09-07T12:28:59;3.92;;;1.10;;
46110;SDS011;31849;55.992;37.252;2023-09-07T12:34:04;3.30;;;0.90;;
46110;SDS011;31849;55.992;37.252;2023-09-07T12:39:07;1.90;;;0.82;;
46110;SDS011;31849;55.992;37.252;2023-09-07T12:44:14;2.63;;;1.00;;
46110;SDS011;31849;55.992;37.252;2023-09-07T12:49:21;2.80;;;1.08;;
46110;SDS011;31849;55.992;37.252;2023-09-07T12:54:24;3.97;;;0.90;;
46110;SDS011;31849;55.992;37.252;2023-09-07T12:59:28;2.33;;;0.73;;
46110;SDS011;31849;55.992;37.252;2023-09-07T13:09:36;2.60;;;0.95;;
46110;SDS011;31849;55.992;37.252;2023-09-07T13:14:40;3.33;;;0.70;;
46110;SDS011;31849;55.992;37.252;2023-09-07T13:19:45;2.27;;;0.90;;
46110;SDS011;31849;55.992;37.252;2023-09-07T13:24:50;2.70;;;0.77;;
46110;SDS011;31849;55.992;37.252;2023-09-07T13:29:53;3.13;;;0.90;;
46110;SDS011;31849;55.992;37.252;2023-09-07T13:34:58;2.73;;;0.90;;
46110;SDS011;31849;55.992;37.252;2023-09-07T13:40:02;3.08;;;0.95;;
46110;SDS011;31849;55.992;37.252;2023-09-07T13:45:07;5.65;;;1.25;;
46110;SDS011;31849;55.992;37.252;2023-09-07T13:50:13;2.78;;;0.90;;
46110;SDS011;31849;55.992;37.252;2023-09-07T13:55:16;3.67;;;1.00;;
46110;SDS011;31849;55.992;37.252;2023-09-07T14:00:20;3.03;;;1.33;;
46110;SDS011;31849;55.992;37.252;2023-09-07T14:05:25;5.03;;;1.10;;
46110;SDS011;31849;55.992;37.252;2023-09-07T14:10:28;2.40;;;1.00;;
46110;SDS011;31849;55.992;37.252;2023-09-07T14:15:32;1.87;;;0.93;;
46110;SDS011;31849;55.992;37.252;2023-09-07T14:20:37;5.13;;;0.80;;
46110;SDS011;31849;55.992;37.252;2023-09-07T14:25:40;1.48;;;0.75;;
46110;SDS011;31849;55.992;37.252;2023-09-07T14:30:46;3.88;;;0.82;;
46110;SDS011;31849;55.992;37.252;2023-09-07T14:35:52;3.20;;;1.00;;
46110;SDS011;31849;55.992;37.252;2023-09-07T14:40:56;2.05;;;1.00;;
46110;SDS011;31849;55.992;37.252;2023-09-07T14:46:00;3.80;;;1.00;;
46110;SDS011;31849;55.992;37.252;2023-09-07T14:51:05;1.73;;;0.90;;
46110;SDS011;31849;55.992;37.252;2023-09-07T14:56:08;2.55;;;0.93;;
46110;SDS011;31849;55.992;37.252;2023-09-07T15:01:12;3.63;;;0.83;;
46110;SDS011;31849;55.992;37.252;2023-09-07T15:06:17;2.17;;;0.93;;
46110;SDS011;31849;55.992;37.252;2023-09-07T15:11:21;2.15;;;1.00;;
46110;SDS011;31849;55.992;37.252;2023-09-07T15:16:25;3.05;;;1.05;;
46110;SDS011;31849;55.992;37.252;2023-09-07T15:21:30;2.90;;;1.00;;
46110;SDS011;31849;55.992;37.252;2023-09-07T15:26:40;2.20;;;1.05;;
46110;SDS011;31849;55.992;37.252;2023-09-07T15:31:45;3.53;;;1.08;;
46110;SDS011;31849;55.992;37.252;2023-09-07T15:36:50;1.70;;;0.90;;
46110;SDS011;31849;55.992;37.252;2023-09-07T15:41:53;4.80;;;1.80;;
46110;SDS011;31849;55.992;37.252;2023-09-07T15:46:57;3.35;;;1.30;;
46110;SDS011;31849;55.992;37.252;2023-09-07T15:52:02;5.90;;;1.27;;
46110;SDS011;31849;55.992;37.252;2023-09-07T15:57:06;3.85;;;0.93;;
46110;SDS011;31849;55.992;37.252;2023-09-07T16:02:09;4.78;;;1.25;;
46110;SDS011;31849;55.992;37.252;2023-09-07T16:07:14;3.17;;;1.43;;
46110;SDS011;31849;55.992;37.252;2023-09-07T16:12:18;3.75;;;1.55;;
46110;SDS011;31849;55.992;37.252;2023-09-07T16:17:21;4.78;;;1.70;;
46110;SDS011;31849;55.992;37.252;2023-09-07T16:22:26;6.50;;;2.00;;
46110;SDS011;31849;55.992;37.252;2023-09-07T16:27:30;3.42;;;1.60;;
46110;SDS011;31849;55.992;37.252;2023-09-07T16:32:39;5.65;;;1.88;;
46110;SDS011;31849;55.992;37.252;2023-09-07T16:42:48;3.95;;;2.17;;
46110;SDS011;31849;55.992;37.252;2023-09-07T16:47:52;3.58;;;2.10;;
46110;SDS011;31849;55.992;37.252;2023-09-07T16:52:57;3.30;;;1.90;;
46110;SDS011;31849;55.992;37.252;2023-09-07T16:58:00;7.95;;;2.20;;
46110;SDS011;31849;55.992;37.252;2023-09-07T17:03:04;5.82;;;2.20;;
46110;SDS011;31849;55.992;37.252;2023-09-07T17:08:10;4.50;;;2.13;;
46110;SDS011;31849;55.992;37.252;2023-09-07T17:13:14;4.85;;;2.30;;
46110;SDS011;31849;55.992;37.252;2023-09-07T17:18:19;4.47;;;1.75;;
46110;SDS011;31849;55.992;37.252;2023-09-07T17:23:24;6.13;;;1.85;;
46110;SDS011;31849;55.992;37.252;2023-09-07T17:28:28;5.25;;;2.25;;
46110;SDS011;31849;55.992;37.252;2023-09-07T17:33:32;4.35;;;2.28;;
46110;SDS011;31849;55.992;37.252;2023-09-07T17:38:37;3.80;;;2.13;;
46110;SDS011;31849;55.992;37.252;2023-09-07T17:43:41;7.03;;;2.17;;
46110;SDS011;31849;55.992;37.252;2023-09-07T17:48:48;4.07;;;2.25;;
46110;SDS011;31849;55.992;37.252;2023-09-07T17:53:53;6.25;;;2.03;;
46110;SDS011;31849;55.992;37.252;2023-09-07T17:58:57;6.45;;;2.40;;
46110;SDS011;31849;55.992;37.252;2023-09-07T18:04:03;5.15;;;2.40;;
46110;SDS011;31849;55.992;37.252;2023-09-07T18:09:09;6.25;;;2.13;;
46110;SDS011;31849;55.992;37.252;2023-09-07T18:14:13;4.15;;;2.13;;
46110;SDS011;31849;55.992;37.252;2023-09-07T18:19:16;3.35;;;1.95;;
46110;SDS011;31849;55.992;37.252;2023-09-07T18:24:21;4.32;;;2.38;;
46110;SDS011;31849;55.992;37.252;2023-09-07T18:29:25;4.22;;;2.38;;
46110;SDS011;31849;55.992;37.252;2023-09-07T18:34:29;6.60;;;2.83;;
46110;SDS011;31849;55.992;37.252;2023-09-07T18:39:34;4.77;;;2.60;;
46110;SDS011;31849;55.992;37.252;2023-09-07T18:44:37;5.82;;;2.00;;
46110;SDS011;31849;55.992;37.252;2023-09-07T18:49:41;3.28;;;1.90;;
46110;SDS011;31849;55.992;37.252;2023-09-07T18:54:47;4.35;;;2.10;;
46110;SDS011;31849;55.992;37.252;2023-09-07T18:59:50;4.25;;;1.80;;
46110;SDS011;31849;55.992;37.252;2023-09-07T19:04:54;4.68;;;1.88;;
46110;SDS011;31849;55.992;37.252;2023-09-07T19:10:00;4.88;;;2.13;;
46110;SDS011;31849;55.992;37.252;2023-09-07T19:15:04;6.18;;;1.88;;
46110;SDS011;31849;55.992;37.252;2023-09-07T19:25:14;3.47;;;1.65;;
46110;SDS011;31849;55.992;37.252;2023-09-07T19:30:17;4.70;;;1.83;;
46110;SDS011;31849;55.992;37.252;2023-09-07T19:35:21;4.28;;;1.77;;
46110;SDS011;31849;55.992;37.252;2023-09-07T19:40:26;2.83;;;1.80;;
46110;SDS011;31849;55.992;37.252;2023-09-07T19:45:30;4.38;;;2.05;;
46110;SDS011;31849;55.992;37.252;2023-09-07T19:50:33;5.28;;;1.73;;
46110;SDS011;31849;55.992;37.252;2023-09-07T19:55:39;5.53;;;1.80;;
46110;SDS011;31849;55.992;37.252;2023-09-07T20:00:43;3.22;;;1.70;;
46110;SDS011;31849;55.992;37.252;2023-09-07T20:05:47;3.97;;;1.97;;
46110;SDS011;31849;55.992;37.252;2023-09-07T20:10:52;5.50;;;1.67;;
46110;SDS011;31849;55.992;37.252;2023-09-07T20:15:56;4.35;;;1.55;;
46110;SDS011;31849;55.992;37.252;2023-09-07T20:20:59;3.65;;;1.60;;
46110;SDS011;31849;55.992;37.252;2023-09-07T20:26:04;5.28;;;1.60;;
46110;SDS011;31849;55.992;37.252;2023-09-07T20:31:08;4.35;;;1.80;;
46110;SDS011;31849;55.992;37.252;2023-09-07T20:36:12;4.97;;;1.80;;
46110;SDS011;31849;55.992;37.252;2023-09-07T20:41:18;4.95;;;1.50;;
46110;SDS011;31849;55.992;37.252;2023-09-07T20:46:21;3.38;;;1.50;;
46110;SDS011;31849;55.992;37.252;2023-09-07T20:51:25;3.80;;;2.00;;
46110;SDS011;31849;55.992;37.252;2023-09-07T20:56:30;3.47;;;1.60;;
46110;SDS011;31849;55.992;37.252;2023-09-07T21:01:33;5.18;;;1.70;;
46110;SDS011;31849;55.992;37.252;2023-09-07T21:06:38;4.40;;;1.60;;
46110;SDS011;31849;55.992;37.252;2023-09-07T21:11:43;3.42;;;1.60;;
46110;SDS011;31849;55.992;37.252;2023-09-07T21:16:46;4.88;;;1.80;;
46110;SDS011;31849;55.992;37.252;2023-09-07T21:21:50;3.30;;;1.70;;
46110;SDS011;31849;55.992;37.252;2023-09-07T21:26:55;4.72;;;1.92;;
46110;SDS011;31849;55.992;37.252;2023-09-07T21:31:59;3.65;;;2.00;;
46110;SDS011;31849;55.992;37.252;2023-09-07T21:37:03;4.68;;;1.40;;
46110;SDS011;31849;55.992;37.252;2023-09-07T21:42:08;4.15;;;1.58;;
46110;SDS011;31849;55.992;37.252;2023-09-07T21:47:12;3.78;;;1.85;;
46110;SDS011;31849;55.992;37.252;2023-09-07T21:52:15;3.60;;;1.60;;
46110;SDS011;31849;55.992;37.252;2023-09-07T21:57:20;5.28;;;1.83;;
46110;SDS011;31849;55.992;37.252;2023-09-07T22:02:26;3.35;;;1.65;;
46110;SDS011;31849;55.992;37.252;2023-09-07T22:07:30;3.57;;;1.77;;
46110;SDS011;31849;55.992;37.252;2023-09-07T22:12:35;4.15;;;1.60;;
46110;SDS011;31849;55.992;37.252;2023-09-07T22:17:39;2.53;;;1.40;;
46110;SDS011;31849;55.992;37.252;2023-09-07T22:22:44;3.47;;;1.63;;
46110;SDS011;31849;55.992;37.252;2023-09-07T22:27:49;4.03;;;1.50;;
46110;SDS011;31849;55.992;37.252;2023-09-07T22:32:53;2.58;;;1.50;;
46110;SDS011;31849;55.992;37.252;2023-09-07T22:37:57;2.88;;;1.33;;
46110;SDS011;31849;55.992;37.252;2023-09-07T22:43:02;3.40;;;1.70;;
46110;SDS011;31849;55.992;37.252;2023-09-07T22:48:07;4.05;;;1.60;;
46110;SDS011;31849;55.992;37.252;2023-09-07T22:53:11;3.38;;;1.50;;
46110;SDS011;31849;55.992;37.252;2023-09-07T22:58:16;3.22;;;1.40;;
46110;SDS011;31849;55.992;37.252;2023-09-07T23:03:22;2.25;;;1.40;;
46110;SDS011;31849;55.992;37.252;2023-09-07T23:08:26;4.47;;;1.60;;
46110;SDS011;31849;55.992;37.252;2023-09-07T23:13:35;3.65;;;1.50;;
46110;SDS011;31849;55.992;37.252;2023-09-07T23:18:38;3.80;;;1.35;;
46110;SDS011;31849;55.992;37.252;2023-09-07T23:23:42;3.23;;;1.47;;
46110;SDS011;31849;55.992;37.252;2023-09-07T23:28:47;4.03;;;1.60;;
46110;SDS011;31849;55.992;37.252;2023-09-07T23:33:51;3.10;;;1.40;;
46110;SDS011;31849;55.992;37.252;2023-09-07T23:38:55;4.78;;;1.52;;
46110;SDS011;31849;55.992;37.252;2023-09-07T23:44:00;6.93;;;2.00;;
46110;SDS011;31849;55.992;37.252;2023-09-07T23:49:03;3.15;;;1.63;;
46110;SDS011;31849;55.992;37.252;2023-09-07T23:54:07;3.08;;;1.50;;
46110;SDS011;31849;55.992;37.252;2023-09-07T23:59:14;2.90;;;1.50;;
